Airport Information

KMWH - Grant Co Intl Airport

KMWH 241252Z 01005KT 10SM CLR 13/06 A3019 RMK AO2 SLP218 T01280056


  • General Information

  • Coordinates: N 47°12'27"/ W 119°19'12"
  • Location: N/A
  • Surveyed Elevation: 1185 MSL

Operations

Flow Name Active Runways Conditions
North Flow Landing: 32R
Departing: 32R
Wind Direction: 230-049°
Wind Speed: >10
South Flow Landing: 14L
Departing: 14L
Wind Direction: 050-229°
Wind Speed: ≤10 or CALM

Green background denotes normal operations.


Common Frequencies

Callsign Frequency Position Name
MWH_GND 121.900 Grant County Ground
MWH_TWR 118.250 Grant County Tower
MWH_APP 126.400 Grant County Approach/Departure
KMWH_ATIS 119.050 Grant County ATIS

More at the Document Center


Charts